sensor_id;sensor_type;location;lat;lon;timestamp;temperature;humidity
10121;DHT22;5100;45.176;5.714;2023-07-31T00:00:35;25.00;54.60
10121;DHT22;5100;45.176;5.714;2023-07-31T00:03:01;24.90;54.70
10121;DHT22;5100;45.176;5.714;2023-07-31T00:05:27;24.90;54.70
10121;DHT22;5100;45.176;5.714;2023-07-31T00:07:53;24.90;54.70
10121;DHT22;5100;45.176;5.714;2023-07-31T00:10:20;24.90;54.80
10121;DHT22;5100;45.176;5.714;2023-07-31T00:12:47;24.90;54.90
10121;DHT22;5100;45.176;5.714;2023-07-31T00:15:13;24.90;54.90
10121;DHT22;5100;45.176;5.714;2023-07-31T00:17:40;24.80;54.90
10121;DHT22;5100;45.176;5.714;2023-07-31T00:20:06;24.80;54.90
10121;DHT22;5100;45.176;5.714;2023-07-31T00:22:32;24.80;55.00
10121;DHT22;5100;45.176;5.714;2023-07-31T00:24:58;24.80;55.00
10121;DHT22;5100;45.176;5.714;2023-07-31T00:27:25;24.80;55.00
10121;DHT22;5100;45.176;5.714;2023-07-31T00:29:51;24.70;55.00
10121;DHT22;5100;45.176;5.714;2023-07-31T00:32:17;24.70;55.00
10121;DHT22;5100;45.176;5.714;2023-07-31T00:34:43;24.70;55.10
10121;DHT22;5100;45.176;5.714;2023-07-31T00:37:09;24.70;55.10
10121;DHT22;5100;45.176;5.714;2023-07-31T00:39:36;24.60;55.10
10121;DHT22;5100;45.176;5.714;2023-07-31T00:42:02;24.60;55.10
10121;DHT22;5100;45.176;5.714;2023-07-31T00:44:28;24.60;55.10
10121;DHT22;5100;45.176;5.714;2023-07-31T00:46:56;24.60;55.10
10121;DHT22;5100;45.176;5.714;2023-07-31T00:49:22;24.60;55.10
10121;DHT22;5100;45.176;5.714;2023-07-31T00:51:49;24.60;55.10
10121;DHT22;5100;45.176;5.714;2023-07-31T00:54:15;24.60;55.10
10121;DHT22;5100;45.176;5.714;2023-07-31T00:56:41;24.50;55.10
10121;DHT22;5100;45.176;5.714;2023-07-31T00:59:10;24.50;55.10
10121;DHT22;5100;45.176;5.714;2023-07-31T01:01:37;24.50;55.10
10121;DHT22;5100;45.176;5.714;2023-07-31T01:04:03;24.50;55.10
10121;DHT22;5100;45.176;5.714;2023-07-31T01:06:56;24.50;55.20
10121;DHT22;5100;45.176;5.714;2023-07-31T01:12:21;24.40;55.30
10121;DHT22;5100;45.176;5.714;2023-07-31T01:15:05;24.40;55.30
10121;DHT22;5100;45.176;5.714;2023-07-31T01:17:32;24.40;55.30
10121;DHT22;5100;45.176;5.714;2023-07-31T01:20:01;24.40;55.30
10121;DHT22;5100;45.176;5.714;2023-07-31T01:22:39;24.40;55.40
10121;DHT22;5100;45.176;5.714;2023-07-31T01:25:24;24.40;55.40
10121;DHT22;5100;45.176;5.714;2023-07-31T01:28:11;24.40;55.40
10121;DHT22;5100;45.176;5.714;2023-07-31T01:30:43;24.40;55.50
10121;DHT22;5100;45.176;5.714;2023-07-31T01:33:10;24.30;55.50
10121;DHT22;5100;45.176;5.714;2023-07-31T01:35:37;24.30;55.60
10121;DHT22;5100;45.176;5.714;2023-07-31T01:38:04;24.30;55.60
10121;DHT22;5100;45.176;5.714;2023-07-31T01:40:30;24.30;55.70
10121;DHT22;5100;45.176;5.714;2023-07-31T01:42:56;24.30;55.70
10121;DHT22;5100;45.176;5.714;2023-07-31T01:45:22;24.30;55.70
10121;DHT22;5100;45.176;5.714;2023-07-31T01:47:48;24.30;55.70
10121;DHT22;5100;45.176;5.714;2023-07-31T01:50:14;24.30;55.80
10121;DHT22;5100;45.176;5.714;2023-07-31T01:52:41;24.30;55.80
10121;DHT22;5100;45.176;5.714;2023-07-31T01:55:08;24.20;55.80
10121;DHT22;5100;45.176;5.714;2023-07-31T01:57:34;24.20;56.00
10121;DHT22;5100;45.176;5.714;2023-07-31T02:00:03;24.20;56.10
10121;DHT22;5100;45.176;5.714;2023-07-31T02:02:37;24.20;56.10
10121;DHT22;5100;45.176;5.714;2023-07-31T02:05:04;24.20;56.20
10121;DHT22;5100;45.176;5.714;2023-07-31T02:07:30;24.20;56.20
10121;DHT22;5100;45.176;5.714;2023-07-31T02:09:56;24.20;56.20
10121;DHT22;5100;45.176;5.714;2023-07-31T02:12:22;24.20;56.20
10121;DHT22;5100;45.176;5.714;2023-07-31T02:14:48;24.20;56.30
10121;DHT22;5100;45.176;5.714;2023-07-31T02:17:14;24.10;56.20
10121;DHT22;5100;45.176;5.714;2023-07-31T02:19:41;24.10;56.20
10121;DHT22;5100;45.176;5.714;2023-07-31T02:22:07;24.10;56.00
10121;DHT22;5100;45.176;5.714;2023-07-31T02:24:33;24.10;56.00
10121;DHT22;5100;45.176;5.714;2023-07-31T02:26:59;24.10;55.90
10121;DHT22;5100;45.176;5.714;2023-07-31T02:29:25;24.00;55.90
10121;DHT22;5100;45.176;5.714;2023-07-31T02:31:51;24.00;55.90
10121;DHT22;5100;45.176;5.714;2023-07-31T02:34:17;24.00;56.00
10121;DHT22;5100;45.176;5.714;2023-07-31T02:36:43;24.00;56.10
10121;DHT22;5100;45.176;5.714;2023-07-31T02:39:09;24.00;56.20
10121;DHT22;5100;45.176;5.714;2023-07-31T02:41:35;24.00;56.20
10121;DHT22;5100;45.176;5.714;2023-07-31T02:44:01;24.00;56.20
10121;DHT22;5100;45.176;5.714;2023-07-31T02:46:27;24.00;56.30
10121;DHT22;5100;45.176;5.714;2023-07-31T02:48:54;24.00;56.50
10121;DHT22;5100;45.176;5.714;2023-07-31T02:51:20;24.00;56.70
10121;DHT22;5100;45.176;5.714;2023-07-31T02:53:47;23.90;56.90
10121;DHT22;5100;45.176;5.714;2023-07-31T02:56:14;23.90;57.20
10121;DHT22;5100;45.176;5.714;2023-07-31T02:58:39;23.90;57.30
10121;DHT22;5100;45.176;5.714;2023-07-31T03:01:05;23.90;57.40
10121;DHT22;5100;45.176;5.714;2023-07-31T03:03:32;23.90;57.50
10121;DHT22;5100;45.176;5.714;2023-07-31T03:05:57;23.90;57.50
10121;DHT22;5100;45.176;5.714;2023-07-31T03:08:23;23.80;57.60
10121;DHT22;5100;45.176;5.714;2023-07-31T03:10:50;23.80;57.70
10121;DHT22;5100;45.176;5.714;2023-07-31T03:13:16;23.80;57.70
10121;DHT22;5100;45.176;5.714;2023-07-31T03:15:42;23.80;57.70
10121;DHT22;5100;45.176;5.714;2023-07-31T03:18:09;23.80;57.80
10121;DHT22;5100;45.176;5.714;2023-07-31T03:20:35;23.70;57.90
10121;DHT22;5100;45.176;5.714;2023-07-31T03:23:01;23.70;58.00
10121;DHT22;5100;45.176;5.714;2023-07-31T03:25:27;23.70;58.00
10121;DHT22;5100;45.176;5.714;2023-07-31T03:27:53;23.70;58.00
10121;DHT22;5100;45.176;5.714;2023-07-31T03:30:19;23.60;58.10
10121;DHT22;5100;45.176;5.714;2023-07-31T03:32:46;23.60;58.10
10121;DHT22;5100;45.176;5.714;2023-07-31T03:35:12;23.60;58.10
10121;DHT22;5100;45.176;5.714;2023-07-31T03:37:37;23.60;58.10
10121;DHT22;5100;45.176;5.714;2023-07-31T03:40:04;23.60;58.10
10121;DHT22;5100;45.176;5.714;2023-07-31T03:42:30;23.50;58.20
10121;DHT22;5100;45.176;5.714;2023-07-31T03:44:56;23.50;58.40
10121;DHT22;5100;45.176;5.714;2023-07-31T03:47:22;23.50;58.40
10121;DHT22;5100;45.176;5.714;2023-07-31T03:49:48;23.50;58.50
10121;DHT22;5100;45.176;5.714;2023-07-31T03:52:14;23.40;58.60
10121;DHT22;5100;45.176;5.714;2023-07-31T03:54:40;23.40;58.60
10121;DHT22;5100;45.176;5.714;2023-07-31T03:57:06;23.40;58.70
10121;DHT22;5100;45.176;5.714;2023-07-31T03:59:32;23.40;58.70
10121;DHT22;5100;45.176;5.714;2023-07-31T04:01:58;23.40;58.80
10121;DHT22;5100;45.176;5.714;2023-07-31T04:04:24;23.40;58.90
10121;DHT22;5100;45.176;5.714;2023-07-31T04:06:50;23.30;58.90
10121;DHT22;5100;45.176;5.714;2023-07-31T04:09:16;23.30;59.00
10121;DHT22;5100;45.176;5.714;2023-07-31T04:11:42;23.30;59.00
10121;DHT22;5100;45.176;5.714;2023-07-31T04:14:08;23.30;59.10
10121;DHT22;5100;45.176;5.714;2023-07-31T04:16:35;23.30;59.20
10121;DHT22;5100;45.176;5.714;2023-07-31T04:19:01;23.20;59.20
10121;DHT22;5100;45.176;5.714;2023-07-31T04:21:28;23.20;59.20
10121;DHT22;5100;45.176;5.714;2023-07-31T04:23:54;23.20;59.20
10121;DHT22;5100;45.176;5.714;2023-07-31T04:26:22;23.20;59.30
10121;DHT22;5100;45.176;5.714;2023-07-31T04:28:48;23.20;59.30
10121;DHT22;5100;45.176;5.714;2023-07-31T04:31:14;23.20;59.40
10121;DHT22;5100;45.176;5.714;2023-07-31T04:33:40;23.10;59.40
10121;DHT22;5100;45.176;5.714;2023-07-31T04:36:06;23.10;59.50
10121;DHT22;5100;45.176;5.714;2023-07-31T04:38:32;23.10;59.50
10121;DHT22;5100;45.176;5.714;2023-07-31T04:40:58;23.10;59.60
10121;DHT22;5100;45.176;5.714;2023-07-31T04:43:24;23.10;59.60
10121;DHT22;5100;45.176;5.714;2023-07-31T04:45:50;23.10;59.60
10121;DHT22;5100;45.176;5.714;2023-07-31T04:48:16;23.10;59.70
10121;DHT22;5100;45.176;5.714;2023-07-31T04:50:42;23.10;59.70
10121;DHT22;5100;45.176;5.714;2023-07-31T04:53:08;23.10;59.70
10121;DHT22;5100;45.176;5.714;2023-07-31T04:55:34;23.10;59.80
10121;DHT22;5100;45.176;5.714;2023-07-31T04:58:00;23.10;59.70
10121;DHT22;5100;45.176;5.714;2023-07-31T05:00:26;23.10;59.70
10121;DHT22;5100;45.176;5.714;2023-07-31T05:02:52;23.00;59.60
10121;DHT22;5100;45.176;5.714;2023-07-31T05:05:18;23.10;59.60
10121;DHT22;5100;45.176;5.714;2023-07-31T05:07:44;23.10;59.60
10121;DHT22;5100;45.176;5.714;2023-07-31T05:10:10;23.10;59.60
10121;DHT22;5100;45.176;5.714;2023-07-31T05:12:36;23.10;59.60
10121;DHT22;5100;45.176;5.714;2023-07-31T05:15:02;23.10;59.70
10121;DHT22;5100;45.176;5.714;2023-07-31T05:17:29;23.10;59.70
10121;DHT22;5100;45.176;5.714;2023-07-31T05:19:54;23.10;59.60
10121;DHT22;5100;45.176;5.714;2023-07-31T05:22:20;23.20;59.40
10121;DHT22;5100;45.176;5.714;2023-07-31T05:24:47;23.20;59.40
10121;DHT22;5100;45.176;5.714;2023-07-31T05:27:13;23.20;59.40
10121;DHT22;5100;45.176;5.714;2023-07-31T05:29:40;23.20;59.50
10121;DHT22;5100;45.176;5.714;2023-07-31T05:32:07;23.30;59.50
10121;DHT22;5100;45.176;5.714;2023-07-31T05:34:33;23.30;59.50
10121;DHT22;5100;45.176;5.714;2023-07-31T05:36:59;23.30;59.60
10121;DHT22;5100;45.176;5.714;2023-07-31T05:39:25;23.30;59.70
10121;DHT22;5100;45.176;5.714;2023-07-31T05:41:51;23.30;59.70
10121;DHT22;5100;45.176;5.714;2023-07-31T05:44:16;23.30;59.70
10121;DHT22;5100;45.176;5.714;2023-07-31T05:46:43;23.40;59.70
10121;DHT22;5100;45.176;5.714;2023-07-31T05:49:08;23.40;59.80
10121;DHT22;5100;45.176;5.714;2023-07-31T05:51:34;23.40;59.80
10121;DHT22;5100;45.176;5.714;2023-07-31T05:54:00;23.40;59.90
10121;DHT22;5100;45.176;5.714;2023-07-31T05:56:26;23.50;60.00
10121;DHT22;5100;45.176;5.714;2023-07-31T05:58:52;23.60;60.00
10121;DHT22;5100;45.176;5.714;2023-07-31T06:01:19;23.70;59.90
10121;DHT22;5100;45.176;5.714;2023-07-31T06:03:47;23.80;59.70
10121;DHT22;5100;45.176;5.714;2023-07-31T06:06:13;23.90;59.50
10121;DHT22;5100;45.176;5.714;2023-07-31T06:08:39;24.00;59.20
10121;DHT22;5100;45.176;5.714;2023-07-31T06:11:06;24.10;59.00
10121;DHT22;5100;45.176;5.714;2023-07-31T06:13:35;24.20;58.80
10121;DHT22;5100;45.176;5.714;2023-07-31T06:16:01;24.30;58.60
10121;DHT22;5100;45.176;5.714;2023-07-31T06:18:32;24.40;58.50
10121;DHT22;5100;45.176;5.714;2023-07-31T06:20:58;24.50;58.40
10121;DHT22;5100;45.176;5.714;2023-07-31T06:23:24;24.60;58.20
10121;DHT22;5100;45.176;5.714;2023-07-31T06:25:50;24.70;57.90
10121;DHT22;5100;45.176;5.714;2023-07-31T06:28:16;24.80;57.80
10121;DHT22;5100;45.176;5.714;2023-07-31T06:30:42;24.90;57.70
10121;DHT22;5100;45.176;5.714;2023-07-31T06:33:09;25.00;57.40
10121;DHT22;5100;45.176;5.714;2023-07-31T06:35:34;25.10;57.30
10121;DHT22;5100;45.176;5.714;2023-07-31T06:38:01;25.10;57.00
10121;DHT22;5100;45.176;5.714;2023-07-31T06:40:29;25.20;56.80
10121;DHT22;5100;45.176;5.714;2023-07-31T06:42:55;25.30;56.70
10121;DHT22;5100;45.176;5.714;2023-07-31T06:45:21;25.30;56.50
10121;DHT22;5100;45.176;5.714;2023-07-31T06:47:47;25.40;56.50
10121;DHT22;5100;45.176;5.714;2023-07-31T06:50:13;25.40;56.50
10121;DHT22;5100;45.176;5.714;2023-07-31T06:52:39;25.50;56.40
10121;DHT22;5100;45.176;5.714;2023-07-31T06:55:19;25.50;56.20
10121;DHT22;5100;45.176;5.714;2023-07-31T06:57:50;25.60;55.90
10121;DHT22;5100;45.176;5.714;2023-07-31T07:00:18;25.60;55.80
10121;DHT22;5100;45.176;5.714;2023-07-31T07:02:45;25.70;55.70
10121;DHT22;5100;45.176;5.714;2023-07-31T07:05:13;25.70;55.60
10121;DHT22;5100;45.176;5.714;2023-07-31T07:07:40;25.70;55.40
10121;DHT22;5100;45.176;5.714;2023-07-31T07:10:06;25.80;55.20
10121;DHT22;5100;45.176;5.714;2023-07-31T07:12:33;25.80;55.10
10121;DHT22;5100;45.176;5.714;2023-07-31T07:15:00;25.80;55.10
10121;DHT22;5100;45.176;5.714;2023-07-31T07:17:27;25.80;55.00
10121;DHT22;5100;45.176;5.714;2023-07-31T07:19:53;25.80;54.90
10121;DHT22;5100;45.176;5.714;2023-07-31T07:22:19;25.90;54.80
10121;DHT22;5100;45.176;5.714;2023-07-31T07:24:45;25.90;54.90
10121;DHT22;5100;45.176;5.714;2023-07-31T07:27:11;25.90;55.00
10121;DHT22;5100;45.176;5.714;2023-07-31T07:29:38;25.90;54.80
10121;DHT22;5100;45.176;5.714;2023-07-31T07:32:04;25.90;54.80
10121;DHT22;5100;45.176;5.714;2023-07-31T07:34:31;25.90;54.80
10121;DHT22;5100;45.176;5.714;2023-07-31T07:36:57;25.90;54.80
10121;DHT22;5100;45.176;5.714;2023-07-31T07:39:23;25.90;54.80
10121;DHT22;5100;45.176;5.714;2023-07-31T07:41:49;25.90;54.80
10121;DHT22;5100;45.176;5.714;2023-07-31T07:44:15;25.90;54.70
10121;DHT22;5100;45.176;5.714;2023-07-31T07:46:41;25.90;54.70
10121;DHT22;5100;45.176;5.714;2023-07-31T07:49:07;25.90;54.70
10121;DHT22;5100;45.176;5.714;2023-07-31T07:51:33;25.90;54.60
10121;DHT22;5100;45.176;5.714;2023-07-31T07:53:59;25.90;54.50
10121;DHT22;5100;45.176;5.714;2023-07-31T07:56:26;25.90;54.40
10121;DHT22;5100;45.176;5.714;2023-07-31T07:58:53;25.90;54.20
10121;DHT22;5100;45.176;5.714;2023-07-31T08:01:19;25.90;54.00
10121;DHT22;5100;45.176;5.714;2023-07-31T08:03:47;25.90;54.10
10121;DHT22;5100;45.176;5.714;2023-07-31T08:06:14;25.90;54.00
10121;DHT22;5100;45.176;5.714;2023-07-31T08:08:40;25.90;54.00
10121;DHT22;5100;45.176;5.714;2023-07-31T08:11:06;25.90;54.10
10121;DHT22;5100;45.176;5.714;2023-07-31T08:13:32;25.90;54.00
10121;DHT22;5100;45.176;5.714;2023-07-31T08:15:58;25.80;53.90
10121;DHT22;5100;45.176;5.714;2023-07-31T08:18:24;25.80;53.80
10121;DHT22;5100;45.176;5.714;2023-07-31T08:20:50;25.80;53.80
10121;DHT22;5100;45.176;5.714;2023-07-31T08:23:16;25.80;53.60
10121;DHT22;5100;45.176;5.714;2023-07-31T08:25:43;25.80;53.50
10121;DHT22;5100;45.176;5.714;2023-07-31T08:28:09;25.80;53.30
10121;DHT22;5100;45.176;5.714;2023-07-31T08:30:35;25.80;53.30
10121;DHT22;5100;45.176;5.714;2023-07-31T08:33:01;25.80;53.20
10121;DHT22;5100;45.176;5.714;2023-07-31T08:35:27;25.80;53.00
10121;DHT22;5100;45.176;5.714;2023-07-31T08:37:56;25.80;53.10
10121;DHT22;5100;45.176;5.714;2023-07-31T08:40:22;25.80;53.10
10121;DHT22;5100;45.176;5.714;2023-07-31T08:42:51;25.80;52.80
10121;DHT22;5100;45.176;5.714;2023-07-31T08:45:18;25.80;52.60
10121;DHT22;5100;45.176;5.714;2023-07-31T08:47:46;25.80;52.40
10121;DHT22;5100;45.176;5.714;2023-07-31T08:50:14;25.80;52.20
10121;DHT22;5100;45.176;5.714;2023-07-31T08:52:40;25.80;52.20
10121;DHT22;5100;45.176;5.714;2023-07-31T08:55:07;25.80;52.20
10121;DHT22;5100;45.176;5.714;2023-07-31T08:57:38;25.80;52.00
10121;DHT22;5100;45.176;5.714;2023-07-31T09:00:05;25.80;51.80
10121;DHT22;5100;45.176;5.714;2023-07-31T09:02:44;25.80;51.70
10121;DHT22;5100;45.176;5.714;2023-07-31T09:05:11;25.80;51.70
10121;DHT22;5100;45.176;5.714;2023-07-31T09:07:38;25.80;51.70
10121;DHT22;5100;45.176;5.714;2023-07-31T09:10:05;25.80;51.70
10121;DHT22;5100;45.176;5.714;2023-07-31T09:12:32;25.90;51.80
10121;DHT22;5100;45.176;5.714;2023-07-31T09:14:58;25.80;51.80
10121;DHT22;5100;45.176;5.714;2023-07-31T09:17:35;25.80;51.80
10121;DHT22;5100;45.176;5.714;2023-07-31T09:22:44;25.60;51.70
10121;DHT22;5100;45.176;5.714;2023-07-31T09:25:24;25.50;51.80
10121;DHT22;5100;45.176;5.714;2023-07-31T09:27:56;25.30;51.80
10121;DHT22;5100;45.176;5.714;2023-07-31T09:30:23;25.30;52.10
10121;DHT22;5100;45.176;5.714;2023-07-31T09:32:51;25.30;52.10
10121;DHT22;5100;45.176;5.714;2023-07-31T09:35:32;25.30;52.10
10121;DHT22;5100;45.176;5.714;2023-07-31T09:38:00;25.30;52.00
10121;DHT22;5100;45.176;5.714;2023-07-31T09:40:34;25.30;52.20
10121;DHT22;5100;45.176;5.714;2023-07-31T09:43:02;25.40;52.30
10121;DHT22;5100;45.176;5.714;2023-07-31T09:45:29;25.40;52.20
10121;DHT22;5100;45.176;5.714;2023-07-31T09:47:56;25.40;51.90
10121;DHT22;5100;45.176;5.714;2023-07-31T09:50:24;25.30;51.80
10121;DHT22;5100;45.176;5.714;2023-07-31T09:52:53;25.30;51.80
10121;DHT22;5100;45.176;5.714;2023-07-31T09:55:19;25.30;51.80
10121;DHT22;5100;45.176;5.714;2023-07-31T09:57:47;25.20;52.00
10121;DHT22;5100;45.176;5.714;2023-07-31T10:00:15;25.20;52.20
10121;DHT22;5100;45.176;5.714;2023-07-31T10:02:45;25.20;52.20
10121;DHT22;5100;45.176;5.714;2023-07-31T10:05:13;25.30;52.30
10121;DHT22;5100;45.176;5.714;2023-07-31T10:07:51;25.30;52.20
10121;DHT22;5100;45.176;5.714;2023-07-31T10:10:20;25.40;52.10
10121;DHT22;5100;45.176;5.714;2023-07-31T10:12:48;25.40;52.10
10121;DHT22;5100;45.176;5.714;2023-07-31T10:15:16;25.50;52.20
10121;DHT22;5100;45.176;5.714;2023-07-31T10:17:43;25.50;52.30
10121;DHT22;5100;45.176;5.714;2023-07-31T10:20:10;25.60;52.20
10121;DHT22;5100;45.176;5.714;2023-07-31T10:22:36;25.60;52.20
10121;DHT22;5100;45.176;5.714;2023-07-31T10:25:03;25.70;52.30
10121;DHT22;5100;45.176;5.714;2023-07-31T10:27:29;25.70;52.30
10121;DHT22;5100;45.176;5.714;2023-07-31T10:29:57;25.70;52.10
10121;DHT22;5100;45.176;5.714;2023-07-31T10:32:25;25.80;51.60
10121;DHT22;5100;45.176;5.714;2023-07-31T10:34:51;25.70;51.30
10121;DHT22;5100;45.176;5.714;2023-07-31T10:37:29;25.70;51.30
10121;DHT22;5100;45.176;5.714;2023-07-31T10:42:37;25.70;51.30
10121;DHT22;5100;45.176;5.714;2023-07-31T10:45:10;25.70;51.40
10121;DHT22;5100;45.176;5.714;2023-07-31T10:47:38;25.70;51.40
10121;DHT22;5100;45.176;5.714;2023-07-31T10:50:19;25.80;51.40
10121;DHT22;5100;45.176;5.714;2023-07-31T10:52:56;25.80;51.50
10121;DHT22;5100;45.176;5.714;2023-07-31T10:55:38;25.90;51.70
10121;DHT22;5100;45.176;5.714;2023-07-31T10:58:11;26.00;51.50
10121;DHT22;5100;45.176;5.714;2023-07-31T11:00:39;26.00;51.50
10121;DHT22;5100;45.176;5.714;2023-07-31T11:08:29;26.10;51.10
10121;DHT22;5100;45.176;5.714;2023-07-31T11:13:31;26.20;51.10
10121;DHT22;5100;45.176;5.714;2023-07-31T11:15:57;26.20;51.30
10121;DHT22;5100;45.176;5.714;2023-07-31T11:18:24;26.20;51.40
10121;DHT22;5100;45.176;5.714;2023-07-31T11:20:52;26.30;51.50
10121;DHT22;5100;45.176;5.714;2023-07-31T11:23:19;26.30;51.10
10121;DHT22;5100;45.176;5.714;2023-07-31T11:25:45;26.40;51.00
10121;DHT22;5100;45.176;5.714;2023-07-31T11:28:16;26.50;50.90
10121;DHT22;5100;45.176;5.714;2023-07-31T11:30:43;26.50;50.60
10121;DHT22;5100;45.176;5.714;2023-07-31T11:33:11;26.60;50.40
10121;DHT22;5100;45.176;5.714;2023-07-31T11:35:46;26.60;50.50
10121;DHT22;5100;45.176;5.714;2023-07-31T11:38:41;26.60;50.70
10121;DHT22;5100;45.176;5.714;2023-07-31T11:41:07;26.70;51.00
10121;DHT22;5100;45.176;5.714;2023-07-31T11:43:33;26.70;51.10
10121;DHT22;5100;45.176;5.714;2023-07-31T11:46:01;26.70;51.00
10121;DHT22;5100;45.176;5.714;2023-07-31T11:48:35;26.80;51.00
10121;DHT22;5100;45.176;5.714;2023-07-31T11:51:04;26.80;50.70
10121;DHT22;5100;45.176;5.714;2023-07-31T11:56:02;26.80;51.00
10121;DHT22;5100;45.176;5.714;2023-07-31T11:58:31;26.90;51.00
10121;DHT22;5100;45.176;5.714;2023-07-31T12:00:59;26.90;51.10
10121;DHT22;5100;45.176;5.714;2023-07-31T12:03:26;26.90;51.00
10121;DHT22;5100;45.176;5.714;2023-07-31T12:05:55;26.90;50.90
10121;DHT22;5100;45.176;5.714;2023-07-31T12:08:23;26.90;50.60
10121;DHT22;5100;45.176;5.714;2023-07-31T12:10:54;27.00;50.80
10121;DHT22;5100;45.176;5.714;2023-07-31T12:13:22;27.00;50.60
10121;DHT22;5100;45.176;5.714;2023-07-31T12:15:48;27.00;50.40
10121;DHT22;5100;45.176;5.714;2023-07-31T12:18:18;27.00;49.90
10121;DHT22;5100;45.176;5.714;2023-07-31T12:20:45;27.00;50.10
10121;DHT22;5100;45.176;5.714;2023-07-31T12:23:20;27.00;50.20
10121;DHT22;5100;45.176;5.714;2023-07-31T12:26:11;27.10;50.50
10121;DHT22;5100;45.176;5.714;2023-07-31T12:28:42;27.10;50.30
10121;DHT22;5100;45.176;5.714;2023-07-31T12:31:16;27.10;50.60
10121;DHT22;5100;45.176;5.714;2023-07-31T12:33:49;27.10;50.80
10121;DHT22;5100;45.176;5.714;2023-07-31T12:36:17;27.10;50.80
10121;DHT22;5100;45.176;5.714;2023-07-31T12:38:44;27.10;50.80
10121;DHT22;5100;45.176;5.714;2023-07-31T12:41:10;27.10;50.90
10121;DHT22;5100;45.176;5.714;2023-07-31T12:43:39;27.20;51.10
10121;DHT22;5100;45.176;5.714;2023-07-31T12:46:06;27.20;51.10
10121;DHT22;5100;45.176;5.714;2023-07-31T12:48:34;27.20;51.20
10121;DHT22;5100;45.176;5.714;2023-07-31T12:51:01;27.20;51.20
10121;DHT22;5100;45.176;5.714;2023-07-31T12:53:27;27.20;51.20
10121;DHT22;5100;45.176;5.714;2023-07-31T12:55:54;27.30;51.20
10121;DHT22;5100;45.176;5.714;2023-07-31T12:58:20;27.30;51.10
10121;DHT22;5100;45.176;5.714;2023-07-31T13:00:46;27.30;51.00
10121;DHT22;5100;45.176;5.714;2023-07-31T13:03:12;27.30;50.80
10121;DHT22;5100;45.176;5.714;2023-07-31T13:05:38;27.40;50.80
10121;DHT22;5100;45.176;5.714;2023-07-31T13:08:04;27.40;50.60
10121;DHT22;5100;45.176;5.714;2023-07-31T13:10:30;27.40;50.60
10121;DHT22;5100;45.176;5.714;2023-07-31T13:12:56;27.40;50.80
10121;DHT22;5100;45.176;5.714;2023-07-31T13:15:23;27.40;50.70
10121;DHT22;5100;45.176;5.714;2023-07-31T13:17:49;27.40;50.90
10121;DHT22;5100;45.176;5.714;2023-07-31T13:20:15;27.50;50.90
10121;DHT22;5100;45.176;5.714;2023-07-31T13:22:41;27.50;50.90
10121;DHT22;5100;45.176;5.714;2023-07-31T13:25:07;27.50;50.90
10121;DHT22;5100;45.176;5.714;2023-07-31T13:27:35;27.50;50.20
10121;DHT22;5100;45.176;5.714;2023-07-31T13:30:01;27.60;49.90
10121;DHT22;5100;45.176;5.714;2023-07-31T13:32:27;27.60;49.70
10121;DHT22;5100;45.176;5.714;2023-07-31T13:34:54;27.60;49.60
10121;DHT22;5100;45.176;5.714;2023-07-31T13:37:20;27.60;49.60
10121;DHT22;5100;45.176;5.714;2023-07-31T13:39:46;27.60;49.70
10121;DHT22;5100;45.176;5.714;2023-07-31T13:42:12;27.60;49.70
10121;DHT22;5100;45.176;5.714;2023-07-31T13:44:39;27.60;49.70
10121;DHT22;5100;45.176;5.714;2023-07-31T13:47:06;27.60;49.70
10121;DHT22;5100;45.176;5.714;2023-07-31T13:49:32;27.70;49.60
10121;DHT22;5100;45.176;5.714;2023-07-31T13:51:58;27.70;49.50
10121;DHT22;5100;45.176;5.714;2023-07-31T13:54:25;27.70;49.40
10121;DHT22;5100;45.176;5.714;2023-07-31T13:56:52;27.70;49.20
10121;DHT22;5100;45.176;5.714;2023-07-31T13:59:18;27.70;48.90
10121;DHT22;5100;45.176;5.714;2023-07-31T14:01:44;27.70;48.80
10121;DHT22;5100;45.176;5.714;2023-07-31T14:04:11;27.70;48.90
10121;DHT22;5100;45.176;5.714;2023-07-31T14:06:37;27.70;48.80
10121;DHT22;5100;45.176;5.714;2023-07-31T14:09:03;27.70;48.90
10121;DHT22;5100;45.176;5.714;2023-07-31T14:11:33;27.80;48.80
10121;DHT22;5100;45.176;5.714;2023-07-31T14:13:59;27.80;48.50
10121;DHT22;5100;45.176;5.714;2023-07-31T14:16:27;27.80;48.40
10121;DHT22;5100;45.176;5.714;2023-07-31T14:18:54;27.80;47.90
10121;DHT22;5100;45.176;5.714;2023-07-31T14:21:20;27.80;47.60
10121;DHT22;5100;45.176;5.714;2023-07-31T14:23:46;27.80;47.90
10121;DHT22;5100;45.176;5.714;2023-07-31T14:26:12;27.80;47.90
10121;DHT22;5100;45.176;5.714;2023-07-31T14:28:38;27.80;47.60
10121;DHT22;5100;45.176;5.714;2023-07-31T14:31:04;27.90;47.40
10121;DHT22;5100;45.176;5.714;2023-07-31T14:33:31;27.90;47.40
10121;DHT22;5100;45.176;5.714;2023-07-31T14:35:57;27.90;47.50
10121;DHT22;5100;45.176;5.714;2023-07-31T14:38:23;27.90;47.50
10121;DHT22;5100;45.176;5.714;2023-07-31T14:40:49;27.90;47.60
10121;DHT22;5100;45.176;5.714;2023-07-31T14:43:15;27.90;47.40
10121;DHT22;5100;45.176;5.714;2023-07-31T14:45:41;28.00;47.10
10121;DHT22;5100;45.176;5.714;2023-07-31T14:48:07;28.00;46.60
10121;DHT22;5100;45.176;5.714;2023-07-31T14:50:33;28.00;46.50
10121;DHT22;5100;45.176;5.714;2023-07-31T14:53:00;28.00;46.60
10121;DHT22;5100;45.176;5.714;2023-07-31T14:55:26;28.00;46.60
10121;DHT22;5100;45.176;5.714;2023-07-31T14:57:52;28.10;46.60
10121;DHT22;5100;45.176;5.714;2023-07-31T15:00:18;28.10;46.30
10121;DHT22;5100;45.176;5.714;2023-07-31T15:02:44;28.10;46.20
10121;DHT22;5100;45.176;5.714;2023-07-31T15:05:10;28.10;46.00
10121;DHT22;5100;45.176;5.714;2023-07-31T15:07:36;28.10;46.10
10121;DHT22;5100;45.176;5.714;2023-07-31T15:10:03;28.10;46.00
10121;DHT22;5100;45.176;5.714;2023-07-31T15:12:29;28.20;45.90
10121;DHT22;5100;45.176;5.714;2023-07-31T15:14:55;28.20;45.50
10121;DHT22;5100;45.176;5.714;2023-07-31T15:17:22;28.20;45.30
10121;DHT22;5100;45.176;5.714;2023-07-31T15:19:48;28.20;45.40
10121;DHT22;5100;45.176;5.714;2023-07-31T15:22:13;28.20;45.30
10121;DHT22;5100;45.176;5.714;2023-07-31T15:24:40;28.20;45.40
10121;DHT22;5100;45.176;5.714;2023-07-31T15:27:06;28.20;45.40
10121;DHT22;5100;45.176;5.714;2023-07-31T15:29:34;28.20;45.40
10121;DHT22;5100;45.176;5.714;2023-07-31T15:32:04;28.30;45.40
10121;DHT22;5100;45.176;5.714;2023-07-31T15:34:31;28.30;45.60
10121;DHT22;5100;45.176;5.714;2023-07-31T15:36:57;28.30;45.70
10121;DHT22;5100;45.176;5.714;2023-07-31T15:39:23;28.30;45.80
10121;DHT22;5100;45.176;5.714;2023-07-31T15:41:49;28.30;45.90
10121;DHT22;5100;45.176;5.714;2023-07-31T15:44:15;28.30;46.00
10121;DHT22;5100;45.176;5.714;2023-07-31T15:46:41;28.30;46.20
10121;DHT22;5100;45.176;5.714;2023-07-31T15:49:07;28.30;46.30
10121;DHT22;5100;45.176;5.714;2023-07-31T15:51:33;28.30;46.10
10121;DHT22;5100;45.176;5.714;2023-07-31T15:54:00;28.30;46.10
10121;DHT22;5100;45.176;5.714;2023-07-31T15:56:26;28.30;46.00
10121;DHT22;5100;45.176;5.714;2023-07-31T15:58:52;28.40;45.90
10121;DHT22;5100;45.176;5.714;2023-07-31T16:01:18;28.40;45.70
10121;DHT22;5100;45.176;5.714;2023-07-31T16:03:44;28.40;45.70